Time;durP1;ratioP1;P1;durP2;ratioP2;P2;SDS_P1;SDS_P2;PMS_P1;PMS_P2;Temp;Humidity;BMP_temperature;BMP_pressure;BME280_temperature;BME280_humidity;BME280_pressure;Samples;Min_cycle;Max_cycle;Signal;HPM_P1;HPM_P2
2023/01/06 00:01:03;;;;;;;0.83;0.83;;;;;;;;;;5061079;28;20223;-65
2023/01/06 00:03:30;;;;;;;1.33;0.80;;;;;;;;;;5058236;28;20210;-65
2023/01/06 00:05:57;;;;;;;0.67;0.67;;;;;;;;;;5055526;28;20195;-64
2023/01/06 00:08:25;;;;;;;2.27;0.80;;;;;;;;;;5065338;28;20215;-63
2023/01/06 00:10:53;;;;;;;1.17;0.77;;;;;;;;;;5067152;28;20226;-64
2023/01/06 00:13:20;;;;;;;2.20;1.00;;;;;;;;;;5066111;28;20705;-64
2023/01/06 00:15:47;;;;;;;1.63;0.73;;;;;;;;;;5054254;28;20214;-64
2023/01/06 00:18:14;;;;;;;0.70;0.70;;;;;;;;;;5073246;28;20206;-64
2023/01/06 00:20:41;;;;;;;1.10;1.00;;;;;;;;;;5065737;28;20207;-64
2023/01/06 00:23:09;;;;;;;0.80;0.80;;;;;;;;;;5060244;28;20204;-64
2023/01/06 00:25:36;;;;;;;1.80;0.70;;;;;;;;;;5054331;28;20199;-65
2023/01/06 00:28:04;;;;;;;2.17;0.80;;;;;;;;;;5066457;28;20199;-63
2023/01/06 00:30:31;;;;;;;0.80;0.73;;;;;;;;;;5067981;28;20357;-64
2023/01/06 00:32:58;;;;;;;2.00;0.60;;;;;;;;;;5053952;28;20223;-63
2023/01/06 00:35:25;;;;;;;0.60;0.60;;;;;;;;;;5067775;28;20241;-64
2023/01/06 00:37:52;;;;;;;1.47;0.80;;;;;;;;;;5069740;28;20203;-64
2023/01/06 00:40:19;;;;;;;0.70;0.70;;;;;;;;;;5058490;28;20208;-64
2023/01/06 00:42:46;;;;;;;0.70;0.70;;;;;;;;;;5053944;28;20286;-64
2023/01/06 00:45:15;;;;;;;2.00;0.87;;;;;;;;;;5064912;28;20207;-64
2023/01/06 00:47:42;;;;;;;2.77;0.70;;;;;;;;;;5070588;28;20215;-64
2023/01/06 00:50:09;;;;;;;1.97;1.03;;;;;;;;;;5070689;28;20210;-64
2023/01/06 00:52:36;;;;;;;1.50;0.80;;;;;;;;;;5070036;28;20234;-64
2023/01/06 00:55:03;;;;;;;0.77;0.77;;;;;;;;;;5062540;28;20214;-64
2023/01/06 00:57:30;;;;;;;1.17;0.63;;;;;;;;;;5064789;28;20207;-64
2023/01/06 00:59:57;;;;;;;2.73;0.57;;;;;;;;;;5066891;28;20630;-64
2023/01/06 01:02:26;;;;;;;0.57;0.57;;;;;;;;;;5066804;28;20195;-64
2023/01/06 01:04:53;;;;;;;4.40;0.90;;;;;;;;;;5066385;28;20269;-63
2023/01/06 01:07:20;;;;;;;1.17;0.70;;;;;;;;;;5067880;28;21896;-63
2023/01/06 01:09:47;;;;;;;0.90;0.90;;;;;;;;;;5052165;28;20247;-64
2023/01/06 01:12:14;;;;;;;1.30;1.00;;;;;;;;;;5056052;28;20220;-64
2023/01/06 01:14:42;;;;;;;0.67;0.67;;;;;;;;;;5053163;28;20708;-63
2023/01/06 01:17:10;;;;;;;0.97;0.70;;;;;;;;;;5054767;28;20227;-63
2023/01/06 01:19:38;;;;;;;0.70;0.70;;;;;;;;;;5071940;28;20203;-64
2023/01/06 01:22:06;;;;;;;1.03;0.87;;;;;;;;;;5070137;28;20559;-64
2023/01/06 01:24:33;;;;;;;0.73;0.73;;;;;;;;;;5059715;28;20356;-64
2023/01/06 01:27:00;;;;;;;0.60;0.60;;;;;;;;;;5069022;28;20896;-63
2023/01/06 01:29:27;;;;;;;0.73;0.73;;;;;;;;;;5066633;28;20566;-64
2023/01/06 01:31:54;;;;;;;0.77;0.77;;;;;;;;;;5052224;28;20216;-64
2023/01/06 01:34:22;;;;;;;1.17;1.07;;;;;;;;;;5070335;28;20289;-63
2023/01/06 01:36:51;;;;;;;0.80;0.80;;;;;;;;;;5068379;28;20199;-63
2023/01/06 01:39:20;;;;;;;3.73;1.10;;;;;;;;;;5054508;28;20692;-63
2023/01/06 01:41:47;;;;;;;1.10;1.10;;;;;;;;;;5052438;28;20204;-63
2023/01/06 01:44:44;;;;;;;1.10;1.10;;;;;;;;;;5067610;28;20207;-63
2023/01/06 01:47:12;;;;;;;0.83;0.83;;;;;;;;;;5005083;28;20213;-63
2023/01/06 01:49:40;;;;;;;1.67;1.57;;;;;;;;;;5057343;28;20218;-65
2023/01/06 01:52:10;;;;;;;1.40;1.30;;;;;;;;;;5064190;28;20250;-64
2023/01/06 01:54:37;;;;;;;1.50;1.33;;;;;;;;;;5067405;28;20211;-62
2023/01/06 01:57:05;;;;;;;1.07;1.07;;;;;;;;;;5063977;28;20280;-64
2023/01/06 01:59:33;;;;;;;1.30;1.30;;;;;;;;;;5071187;28;20207;-64
2023/01/06 02:02:00;;;;;;;1.13;1.13;;;;;;;;;;5056077;28;20203;-63
2023/01/06 02:04:28;;;;;;;1.67;1.50;;;;;;;;;;5055038;28;20576;-64
2023/01/06 02:06:55;;;;;;;1.80;1.57;;;;;;;;;;5058334;28;20776;-63
2023/01/06 02:09:26;;;;;;;1.80;1.70;;;;;;;;;;5064789;28;20235;-64
2023/01/06 02:11:55;;;;;;;1.67;1.57;;;;;;;;;;5070757;28;20211;-64
2023/01/06 02:14:23;;;;;;;1.17;1.17;;;;;;;;;;5064232;28;20253;-64
2023/01/06 02:16:55;;;;;;;2.07;1.47;;;;;;;;;;5070939;28;20211;-64
2023/01/06 02:19:35;;;;;;;2.20;2.10;;;;;;;;;;5060291;28;20210;-64
2023/01/06 02:22:14;;;;;;;4.40;1.97;;;;;;;;;;5051098;28;20203;-64
2023/01/06 02:24:56;;;;;;;1.90;1.80;;;;;;;;;;5061303;28;20703;-64
2023/01/06 02:27:47;;;;;;;1.87;1.77;;;;;;;;;;5068860;28;20254;-63
2023/01/06 02:30:29;;;;;;;2.53;1.73;;;;;;;;;;5040482;28;20633;-64
2023/01/06 02:33:04;;;;;;;1.93;1.80;;;;;;;;;;5060853;28;20230;-63
2023/01/06 02:35:35;;;;;;;2.37;2.17;;;;;;;;;;5069516;28;20582;-64
2023/01/06 02:38:08;;;;;;;1.90;1.80;;;;;;;;;;5062983;28;20211;-64
2023/01/06 02:40:43;;;;;;;1.83;1.70;;;;;;;;;;5051664;28;20203;-64
2023/01/06 02:43:14;;;;;;;2.50;2.40;;;;;;;;;;5056122;28;20204;-63
2023/01/06 02:45:48;;;;;;;2.13;1.90;;;;;;;;;;5065285;28;20685;-63
2023/01/06 02:48:22;;;;;;;2.57;2.27;;;;;;;;;;5066327;28;20199;-63
2023/01/06 02:50:52;;;;;;;3.97;2.50;;;;;;;;;;5051494;28;20207;-63
2023/01/06 02:53:31;;;;;;;1.87;1.77;;;;;;;;;;5064973;28;20235;-63
2023/01/06 02:55:59;;;;;;;2.57;2.37;;;;;;;;;;5050488;28;20223;-64
2023/01/06 02:58:28;;;;;;;2.33;2.13;;;;;;;;;;5065154;28;20723;-63
2023/01/06 03:00:58;;;;;;;3.80;2.00;;;;;;;;;;5064985;28;20204;-63
2023/01/06 03:03:28;;;;;;;4.10;2.30;;;;;;;;;;5067019;28;20203;-63
2023/01/06 03:05:58;;;;;;;2.73;2.53;;;;;;;;;;5063003;28;20206;-64
2023/01/06 03:08:26;;;;;;;2.50;2.30;;;;;;;;;;5066522;28;20584;-63
2023/01/06 03:10:54;;;;;;;1.90;1.80;;;;;;;;;;5055521;28;20289;-63
2023/01/06 03:13:25;;;;;;;2.37;2.27;;;;;;;;;;5056937;28;20227;-63
2023/01/06 03:15:52;;;;;;;2.53;2.33;;;;;;;;;;5069957;28;20661;-63
2023/01/06 03:18:19;;;;;;;2.73;2.53;;;;;;;;;;5056275;28;20204;-63
2023/01/06 03:20:50;;;;;;;2.30;2.10;;;;;;;;;;5060445;28;20261;-63
2023/01/06 03:23:17;;;;;;;2.57;2.47;;;;;;;;;;5056165;28;20192;-64
2023/01/06 03:25:44;;;;;;;4.30;2.47;;;;;;;;;;5060441;28;20203;-63
2023/01/06 03:28:11;;;;;;;2.73;2.53;;;;;;;;;;5067923;28;20272;-63
2023/01/06 03:30:42;;;;;;;2.43;2.17;;;;;;;;;;5063096;28;20265;-63
2023/01/06 03:33:12;;;;;;;2.37;2.13;;;;;;;;;;5052914;28;20592;-64
2023/01/06 03:35:48;;;;;;;2.10;2.00;;;;;;;;;;5058219;28;20212;-64
2023/01/06 03:38:23;;;;;;;2.70;2.50;;;;;;;;;;5050695;28;20302;-63
2023/01/06 03:40:53;;;;;;;2.63;2.43;;;;;;;;;;5058769;28;20202;-63
2023/01/06 03:43:24;;;;;;;2.40;2.30;;;;;;;;;;5069481;28;20669;-63
2023/01/06 03:45:55;;;;;;;6.00;2.83;;;;;;;;;;5066324;28;20199;-63
2023/01/06 03:48:25;;;;;;;2.37;2.20;;;;;;;;;;5056597;28;20207;-63
2023/01/06 03:50:54;;;;;;;2.23;2.13;;;;;;;;;;5055960;28;20203;-64
2023/01/06 03:53:27;;;;;;;2.40;2.27;;;;;;;;;;5057116;28;20223;-64
2023/01/06 03:56:03;;;;;;;2.50;2.40;;;;;;;;;;5057564;28;20239;-64
2023/01/06 03:58:31;;;;;;;2.30;2.10;;;;;;;;;;5057211;28;20236;-64
2023/01/06 04:00:58;;;;;;;4.87;2.40;;;;;;;;;;5060063;28;20203;-65
2023/01/06 04:03:26;;;;;;;1.80;1.70;;;;;;;;;;5061292;28;20218;-64
2023/01/06 04:05:54;;;;;;;3.40;2.03;;;;;;;;;;5067028;28;20673;-64
2023/01/06 04:08:21;;;;;;;1.83;1.73;;;;;;;;;;5058864;28;20206;-64
2023/01/06 04:10:49;;;;;;;1.67;1.57;;;;;;;;;;5061004;28;20534;-64
2023/01/06 04:13:15;;;;;;;2.50;1.70;;;;;;;;;;5067855;28;20218;-65
2023/01/06 04:15:42;;;;;;;1.90;1.80;;;;;;;;;;5049502;28;20200;-64
2023/01/06 04:18:09;;;;;;;1.77;1.67;;;;;;;;;;5050212;28;20200;-65
2023/01/06 04:20:36;;;;;;;2.43;2.23;;;;;;;;;;5048630;28;20210;-64
2023/01/06 04:23:03;;;;;;;2.17;1.70;;;;;;;;;;5049397;28;20674;-64
2023/01/06 04:25:30;;;;;;;0.97;0.97;;;;;;;;;;5048672;28;20611;-65
2023/01/06 04:27:59;;;;;;;1.80;1.70;;;;;;;;;;5048840;28;20253;-64
2023/01/06 04:30:26;;;;;;;2.00;1.77;;;;;;;;;;5048501;28;20208;-64
2023/01/06 04:32:53;;;;;;;1.90;1.73;;;;;;;;;;5050367;28;20220;-64
2023/01/06 04:35:20;;;;;;;1.87;1.63;;;;;;;;;;5053726;28;20215;-65
2023/01/06 04:37:47;;;;;;;1.53;1.43;;;;;;;;;;5066445;28;20215;-65
2023/01/06 04:40:14;;;;;;;1.27;1.27;;;;;;;;;;5054921;28;20948;-64
2023/01/06 04:45:27;;;;;;;1.10;1.00;;;;;;;;;;5064470;28;20304;-64
2023/01/06 04:47:54;;;;;;;1.47;0.90;;;;;;;;;;5062984;28;20558;-64
2023/01/06 04:50:21;;;;;;;0.80;0.80;;;;;;;;;;5065736;28;20207;-64
2023/01/06 04:52:48;;;;;;;0.67;0.67;;;;;;;;;;5063514;28;20268;-65
2023/01/06 04:55:15;;;;;;;1.00;1.00;;;;;;;;;;5064291;28;20211;-64
2023/01/06 04:57:42;;;;;;;1.00;1.00;;;;;;;;;;5061502;28;20203;-65
2023/01/06 05:00:09;;;;;;;1.03;1.03;;;;;;;;;;5065821;28;20212;-64
2023/01/06 05:02:38;;;;;;;1.20;1.20;;;;;;;;;;5057901;28;20238;-64
2023/01/06 05:05:05;;;;;;;1.00;1.00;;;;;;;;;;5069989;28;20256;-64
2023/01/06 05:07:32;;;;;;;1.10;1.10;;;;;;;;;;5066548;28;20208;-64
2023/01/06 05:09:59;;;;;;;1.17;1.17;;;;;;;;;;5066603;28;20243;-65
2023/01/06 05:12:26;;;;;;;0.80;0.80;;;;;;;;;;5070134;28;20684;-64
2023/01/06 05:14:53;;;;;;;0.90;0.90;;;;;;;;;;5064101;28;20231;-63
2023/01/06 05:17:20;;;;;;;0.70;0.70;;;;;;;;;;5068499;28;20622;-64
2023/01/06 05:19:48;;;;;;;0.50;0.50;;;;;;;;;;5053317;28;20274;-64
2023/01/06 05:22:15;;;;;;;1.00;1.00;;;;;;;;;;5053186;28;20542;-65
2023/01/06 05:24:42;;;;;;;0.57;0.57;;;;;;;;;;5069932;28;20196;-64
2023/01/06 05:27:09;;;;;;;0.60;0.60;;;;;;;;;;5066564;28;20211;-64
2023/01/06 05:29:37;;;;;;;0.60;0.60;;;;;;;;;;5051883;28;20216;-64
2023/01/06 05:32:04;;;;;;;0.40;0.40;;;;;;;;;;5061663;28;20210;-64
2023/01/06 05:34:31;;;;;;;0.50;0.30;;;;;;;;;;5055132;28;20231;-64
2023/01/06 05:37:00;;;;;;;0.10;0.10;;;;;;;;;;5059166;28;20286;-64
2023/01/06 05:39:27;;;;;;;2.43;0.20;;;;;;;;;;5066935;28;20206;-65
2023/01/06 05:41:54;;;;;;;0.33;0.33;;;;;;;;;;5071561;28;20306;-64
2023/01/06 05:44:21;;;;;;;0.30;0.30;;;;;;;;;;5064559;28;20212;-64
2023/01/06 05:46:48;;;;;;;0.20;0.20;;;;;;;;;;5064195;28;20257;-64
2023/01/06 05:49:15;;;;;;;1.80;0.30;;;;;;;;;;5059198;28;20622;-65
2023/01/06 05:51:42;;;;;;;5.00;0.50;;;;;;;;;;5069135;28;20308;-65
2023/01/06 05:54:10;;;;;;;0.30;0.30;;;;;;;;;;5064619;28;20702;-64
2023/01/06 05:56:38;;;;;;;0.33;0.33;;;;;;;;;;5063523;28;20231;-65
2023/01/06 05:59:05;;;;;;;0.27;0.27;;;;;;;;;;5052779;28;20215;-64
2023/01/06 06:01:32;;;;;;;0.40;0.40;;;;;;;;;;5069467;28;20226;-64
2023/01/06 06:03:59;;;;;;;0.33;0.33;;;;;;;;;;5062214;28;20257;-64
2023/01/06 06:06:27;;;;;;;0.40;0.40;;;;;;;;;;5055040;28;20223;-64
2023/01/06 06:08:54;;;;;;;0.73;0.20;;;;;;;;;;5057227;28;20292;-64
2023/01/06 06:11:22;;;;;;;0.20;0.20;;;;;;;;;;5062104;28;20257;-65
2023/01/06 06:13:50;;;;;;;0.33;0.20;;;;;;;;;;5057813;28;20272;-64
2023/01/06 06:16:17;;;;;;;1.23;0.10;;;;;;;;;;5067367;28;20199;-64
2023/01/06 06:18:44;;;;;;;0.10;0.10;;;;;;;;;;5066486;28;20913;-64
2023/01/06 06:21:12;;;;;;;0.10;0.10;;;;;;;;;;5051384;28;20212;-64
2023/01/06 06:23:39;;;;;;;0.93;0.10;;;;;;;;;;5061451;28;20261;-65
2023/01/06 06:26:06;;;;;;;0.20;0.20;;;;;;;;;;5056332;28;20199;-64
2023/01/06 06:28:36;;;;;;;0.10;0.10;;;;;;;;;;5053362;28;20211;-65
2023/01/06 06:31:06;;;;;;;0.10;0.10;;;;;;;;;;5052211;28;20203;-64
2023/01/06 06:33:33;;;;;;;0.40;0.33;;;;;;;;;;5067731;28;20721;-65
2023/01/06 06:36:01;;;;;;;0.10;0.10;;;;;;;;;;5067941;28;20620;-64
2023/01/06 06:38:28;;;;;;;0.10;0.10;;;;;;;;;;5062687;28;20203;-64
2023/01/06 06:40:55;;;;;;;0.10;0.10;;;;;;;;;;5055050;28;20210;-65
2023/01/06 06:43:22;;;;;;;0.43;0.20;;;;;;;;;;5068270;28;20215;-64
2023/01/06 06:45:51;;;;;;;0.13;0.13;;;;;;;;;;5069232;28;20203;-64
2023/01/06 06:48:18;;;;;;;0.00;0.00;;;;;;;;;;5066903;28;20215;-64
2023/01/06 06:50:45;;;;;;;0.00;0.00;;;;;;;;;;5053493;28;20207;-64
2023/01/06 06:53:12;;;;;;;0.10;0.10;;;;;;;;;;5059464;28;20277;-65
2023/01/06 06:55:39;;;;;;;0.00;0.00;;;;;;;;;;5069787;28;20300;-64
2023/01/06 06:58:06;;;;;;;0.10;0.10;;;;;;;;;;5063886;28;20256;-64
2023/01/06 07:00:33;;;;;;;0.23;0.23;;;;;;;;;;5050131;28;20242;-65
2023/01/06 07:03:01;;;;;;;1.60;0.10;;;;;;;;;;5056956;28;20641;-64
2023/01/06 07:05:28;;;;;;;0.00;0.00;;;;;;;;;;5070512;28;20222;-64
2023/01/06 07:07:55;;;;;;;0.00;0.00;;;;;;;;;;5062885;28;20222;-63
2023/01/06 07:10:22;;;;;;;0.23;0.17;;;;;;;;;;5049820;28;20239;-65
2023/01/06 07:12:49;;;;;;;0.10;0.10;;;;;;;;;;5050082;28;20272;-64
2023/01/06 07:15:17;;;;;;;0.00;0.00;;;;;;;;;;5052504;28;20235;-64
2023/01/06 07:17:44;;;;;;;0.00;0.00;;;;;;;;;;5065703;28;20225;-64
2023/01/06 07:20:12;;;;;;;0.57;0.10;;;;;;;;;;5057937;28;20207;-64
2023/01/06 07:22:40;;;;;;;0.10;0.10;;;;;;;;;;5058470;28;20845;-63
2023/01/06 07:25:07;;;;;;;0.10;0.10;;;;;;;;;;5061462;28;20191;-64
2023/01/06 07:27:34;;;;;;;0.10;0.10;;;;;;;;;;5053705;28;20204;-63
2023/01/06 07:30:01;;;;;;;0.20;0.20;;;;;;;;;;5065491;28;20217;-63
2023/01/06 07:32:28;;;;;;;0.13;0.13;;;;;;;;;;5053789;28;20598;-64
2023/01/06 07:34:55;;;;;;;0.10;0.10;;;;;;;;;;5058287;28;20265;-65
2023/01/06 07:37:24;;;;;;;0.10;0.10;;;;;;;;;;5064599;28;20284;-63
2023/01/06 07:39:51;;;;;;;0.10;0.10;;;;;;;;;;5065679;28;20609;-62
2023/01/06 07:42:18;;;;;;;0.27;0.27;;;;;;;;;;5063631;28;20561;-64
2023/01/06 07:44:45;;;;;;;0.97;0.20;;;;;;;;;;5058078;28;20196;-65
2023/01/06 07:47:16;;;;;;;0.10;0.10;;;;;;;;;;5049116;28;20678;-64
2023/01/06 07:49:43;;;;;;;0.20;0.20;;;;;;;;;;5057726;28;20219;-64
2023/01/06 07:52:10;;;;;;;0.27;0.23;;;;;;;;;;5049627;28;20219;-64
2023/01/06 07:54:44;;;;;;;0.20;0.20;;;;;;;;;;5055059;28;20716;-64
2023/01/06 07:57:11;;;;;;;0.20;0.20;;;;;;;;;;5064347;28;20223;-64
2023/01/06 07:59:38;;;;;;;0.73;0.17;;;;;;;;;;5068500;28;20214;-64
2023/01/06 08:02:06;;;;;;;0.20;0.20;;;;;;;;;;5068773;28;20649;-64
2023/01/06 08:04:34;;;;;;;0.27;0.20;;;;;;;;;;5068446;28;20623;-64
2023/01/06 08:07:02;;;;;;;0.23;0.23;;;;;;;;;;5068590;28;20207;-63
2023/01/06 08:09:29;;;;;;;0.20;0.20;;;;;;;;;;5072344;28;20234;-64
2023/01/06 08:11:58;;;;;;;0.30;0.30;;;;;;;;;;5072786;28;20214;-64
2023/01/06 08:14:25;;;;;;;0.27;0.27;;;;;;;;;;5072411;28;20226;-64
2023/01/06 08:16:52;;;;;;;0.20;0.20;;;;;;;;;;5072276;28;20840;-65
2023/01/06 08:19:19;;;;;;;0.10;0.10;;;;;;;;;;5072128;28;20210;-65
2023/01/06 08:21:46;;;;;;;0.20;0.20;;;;;;;;;;5072660;28;20203;-65
2023/01/06 08:24:13;;;;;;;0.30;0.30;;;;;;;;;;5072209;28;20206;-65
2023/01/06 08:26:40;;;;;;;0.10;0.10;;;;;;;;;;5072131;28;20218;-65
2023/01/06 08:29:08;;;;;;;0.10;0.10;;;;;;;;;;5071921;28;20408;-64
2023/01/06 08:31:35;;;;;;;0.30;0.30;;;;;;;;;;5072337;28;20755;-65
2023/01/06 08:34:02;;;;;;;0.13;0.13;;;;;;;;;;5072112;28;20223;-65
2023/01/06 08:36:30;;;;;;;0.00;0.00;;;;;;;;;;5072057;28;20211;-65
2023/01/06 08:38:57;;;;;;;0.10;0.10;;;;;;;;;;5072085;28;20218;-64
2023/01/06 08:41:24;;;;;;;0.30;0.10;;;;;;;;;;5072103;28;20206;-64
2023/01/06 08:43:52;;;;;;;0.20;0.20;;;;;;;;;;5071705;28;20207;-66
2023/01/06 08:46:20;;;;;;;0.33;0.30;;;;;;;;;;5071964;28;20207;-65
2023/01/06 08:48:48;;;;;;;0.77;0.10;;;;;;;;;;5071744;28;20215;-64
2023/01/06 08:51:16;;;;;;;0.27;0.10;;;;;;;;;;5071994;28;20229;-65
2023/01/06 08:53:44;;;;;;;0.10;0.10;;;;;;;;;;5071179;28;20253;-65
2023/01/06 08:56:14;;;;;;;0.17;0.17;;;;;;;;;;5071528;28;20250;-65
2023/01/06 08:58:41;;;;;;;0.10;0.10;;;;;;;;;;5071430;28;20268;-65
2023/01/06 09:01:15;;;;;;;0.10;0.10;;;;;;;;;;5071625;28;20207;-65
2023/01/06 09:03:43;;;;;;;0.13;0.13;;;;;;;;;;5070920;28;20211;-64
2023/01/06 09:06:10;;;;;;;0.10;0.10;;;;;;;;;;5071494;28;20755;-65
2023/01/06 09:08:37;;;;;;;0.20;0.20;;;;;;;;;;5071693;28;20260;-65
2023/01/06 09:11:05;;;;;;;0.10;0.10;;;;;;;;;;5071594;28;20199;-65
2023/01/06 09:13:32;;;;;;;0.13;0.10;;;;;;;;;;5071076;28;20744;-65
2023/01/06 09:16:01;;;;;;;0.10;0.10;;;;;;;;;;5071356;28;20253;-65
2023/01/06 09:18:28;;;;;;;0.10;0.10;;;;;;;;;;5071210;28;20246;-65
2023/01/06 09:20:56;;;;;;;0.10;0.10;;;;;;;;;;5070976;28;20272;-64
2023/01/06 09:23:23;;;;;;;0.10;0.10;;;;;;;;;;5070195;28;20226;-65
2023/01/06 09:25:50;;;;;;;0.30;0.30;;;;;;;;;;5070990;28;20203;-65
2023/01/06 09:28:17;;;;;;;0.20;0.20;;;;;;;;;;5071283;28;20207;-65
2023/01/06 09:30:47;;;;;;;0.13;0.10;;;;;;;;;;5071364;28;20215;-65
2023/01/06 09:33:14;;;;;;;0.10;0.10;;;;;;;;;;5070997;28;20206;-65
2023/01/06 09:35:41;;;;;;;0.10;0.10;;;;;;;;;;5070666;28;20284;-65
2023/01/06 09:38:09;;;;;;;0.57;0.10;;;;;;;;;;5069975;28;20649;-65
2023/01/06 09:40:42;;;;;;;0.10;0.10;;;;;;;;;;5071422;28;20233;-65
2023/01/06 09:43:14;;;;;;;0.10;0.10;;;;;;;;;;5071296;28;20665;-65
2023/01/06 09:45:44;;;;;;;0.27;0.20;;;;;;;;;;5071126;28;20203;-65
2023/01/06 09:48:14;;;;;;;0.30;0.30;;;;;;;;;;5071072;28;20207;-65
2023/01/06 09:50:42;;;;;;;0.67;0.67;;;;;;;;;;5070868;28;20657;-65
2023/01/06 09:53:16;;;;;;;2.63;0.73;;;;;;;;;;5070406;28;20581;-65
2023/01/06 09:55:44;;;;;;;0.30;0.30;;;;;;;;;;5070637;28;20238;-65
2023/01/06 09:58:13;;;;;;;1.77;1.10;;;;;;;;;;5070447;28;20210;-67
2023/01/06 10:00:42;;;;;;;0.27;0.27;;;;;;;;;;5062341;28;20628;-65
2023/01/06 10:03:13;;;;;;;0.20;0.20;;;;;;;;;;5050392;28;20277;-64
2023/01/06 10:05:46;;;;;;;0.13;0.13;;;;;;;;;;5050552;28;20204;-66
2023/01/06 10:08:18;;;;;;;0.40;0.40;;;;;;;;;;5050610;28;20680;-65
2023/01/06 10:10:50;;;;;;;0.50;0.50;;;;;;;;;;5055008;28;20231;-65
2023/01/06 10:13:26;;;;;;;2.10;0.60;;;;;;;;;;5060384;28;20253;-64
2023/01/06 10:15:57;;;;;;;1.50;0.40;;;;;;;;;;5058078;28;20253;-64
2023/01/06 10:18:32;;;;;;;1.63;1.03;;;;;;;;;;5061969;28;20203;-63
2023/01/06 10:21:03;;;;;;;1.33;0.73;;;;;;;;;;5069809;28;20218;-64
2023/01/06 10:23:37;;;;;;;0.30;0.30;;;;;;;;;;5059666;28;20208;-64
2023/01/06 10:26:09;;;;;;;4.17;0.40;;;;;;;;;;5067471;28;20198;-64
2023/01/06 10:28:36;;;;;;;0.17;0.17;;;;;;;;;;5059661;28;20742;-64
2023/01/06 10:31:06;;;;;;;0.20;0.20;;;;;;;;;;5064443;28;20713;-64
2023/01/06 10:33:34;;;;;;;0.00;0.00;;;;;;;;;;5068936;28;20211;-64
2023/01/06 10:36:01;;;;;;;0.13;0.13;;;;;;;;;;5069883;28;20748;-64
2023/01/06 10:38:30;;;;;;;0.10;0.10;;;;;;;;;;5069835;28;20215;-64
2023/01/06 10:41:03;;;;;;;0.00;0.00;;;;;;;;;;5069889;28;20215;-64
2023/01/06 10:43:30;;;;;;;0.00;0.00;;;;;;;;;;5069959;28;20272;-64
2023/01/06 10:45:57;;;;;;;0.10;0.10;;;;;;;;;;5069875;28;20233;-64
2023/01/06 10:48:25;;;;;;;0.07;0.07;;;;;;;;;;5069911;28;20226;-64
2023/01/06 10:50:52;;;;;;;0.10;0.10;;;;;;;;;;5069926;28;20209;-64
2023/01/06 10:53:20;;;;;;;0.00;0.00;;;;;;;;;;5069756;28;20260;-64
2023/01/06 10:55:48;;;;;;;0.20;0.20;;;;;;;;;;5068840;28;20247;-64
2023/01/06 10:58:20;;;;;;;0.83;0.00;;;;;;;;;;5069586;28;20229;-64
2023/01/06 11:00:57;;;;;;;0.20;0.10;;;;;;;;;;5064099;28;20299;-64
2023/01/06 11:03:24;;;;;;;0.63;0.30;;;;;;;;;;5049396;28;20685;-66
2023/01/06 11:05:59;;;;;;;0.20;0.20;;;;;;;;;;5049620;28;20246;-64
2023/01/06 11:08:27;;;;;;;0.23;0.10;;;;;;;;;;5049060;28;20214;-64
2023/01/06 11:10:56;;;;;;;0.10;0.10;;;;;;;;;;5048866;28;20247;-64
2023/01/06 11:13:26;;;;;;;0.20;0.10;;;;;;;;;;5049288;28;20441;-64
2023/01/06 11:15:54;;;;;;;0.10;0.10;;;;;;;;;;5049224;28;20231;-64
2023/01/06 11:18:22;;;;;;;3.77;0.20;;;;;;;;;;5049227;28;20204;-64
2023/01/06 11:21:03;;;;;;;0.30;0.30;;;;;;;;;;5048821;28;20689;-64
2023/01/06 11:23:30;;;;;;;0.10;0.10;;;;;;;;;;5049236;28;20273;-64
2023/01/06 11:26:13;;;;;;;0.20;0.20;;;;;;;;;;5048961;28;20200;-66
2023/01/06 11:28:42;;;;;;;0.10;0.10;;;;;;;;;;5048904;28;20215;-65
2023/01/06 11:31:10;;;;;;;0.10;0.10;;;;;;;;;;5048802;28;20298;-64
2023/01/06 11:33:38;;;;;;;0.17;0.10;;;;;;;;;;5049136;28;20212;-64
2023/01/06 11:36:09;;;;;;;0.40;0.20;;;;;;;;;;5049469;28;20223;-64
2023/01/06 11:38:44;;;;;;;0.20;0.20;;;;;;;;;;5068914;28;20303;-64
2023/01/06 11:41:12;;;;;;;0.20;0.20;;;;;;;;;;5068120;28;20214;-64
2023/01/06 11:43:43;;;;;;;0.30;0.30;;;;;;;;;;5068162;28;20234;-64
2023/01/06 11:46:14;;;;;;;0.30;0.30;;;;;;;;;;5068628;28;20201;-64
2023/01/06 11:48:43;;;;;;;0.10;0.10;;;;;;;;;;5068575;28;20211;-65
2023/01/06 11:51:10;;;;;;;2.73;0.27;;;;;;;;;;5068500;28;20207;-64
2023/01/06 11:53:38;;;;;;;0.23;0.23;;;;;;;;;;5068735;28;20210;-65
2023/01/06 11:56:06;;;;;;;0.20;0.20;;;;;;;;;;5068091;28;20236;-65
2023/01/06 11:58:39;;;;;;;0.40;0.40;;;;;;;;;;5068918;28;20212;-65
2023/01/06 12:01:08;;;;;;;0.30;0.30;;;;;;;;;;5068934;28;20206;-65
2023/01/06 12:03:40;;;;;;;0.30;0.30;;;;;;;;;;5068667;28;20685;-65
2023/01/06 12:06:14;;;;;;;0.10;0.10;;;;;;;;;;5068835;28;20211;-65
2023/01/06 12:08:42;;;;;;;0.53;0.40;;;;;;;;;;5068271;28;20209;-65
2023/01/06 12:11:13;;;;;;;0.30;0.30;;;;;;;;;;5067747;28;20206;-65
2023/01/06 12:13:40;;;;;;;0.20;0.20;;;;;;;;;;5068361;28;20875;-66
2023/01/06 12:16:12;;;;;;;0.30;0.30;;;;;;;;;;5067854;28;20275;-64
2023/01/06 12:18:42;;;;;;;0.30;0.30;;;;;;;;;;5068261;28;20203;-65
2023/01/06 12:21:13;;;;;;;0.20;0.20;;;;;;;;;;5068438;28;20222;-65
2023/01/06 12:23:42;;;;;;;0.30;0.30;;;;;;;;;;5060504;28;20203;-65
2023/01/06 12:26:10;;;;;;;0.20;0.20;;;;;;;;;;5048690;28;20656;-65
2023/01/06 12:28:38;;;;;;;0.20;0.20;;;;;;;;;;5053006;28;20203;-65
2023/01/06 12:31:08;;;;;;;0.20;0.20;;;;;;;;;;5068126;28;20254;-65
2023/01/06 12:33:36;;;;;;;0.20;0.20;;;;;;;;;;5068305;28;20214;-65
2023/01/06 12:36:08;;;;;;;1.40;0.30;;;;;;;;;;5068437;28;20264;-64
2023/01/06 12:38:47;;;;;;;0.30;0.30;;;;;;;;;;5068325;28;20210;-65
2023/01/06 12:41:17;;;;;;;0.30;0.30;;;;;;;;;;5068051;28;20673;-64
2023/01/06 12:43:50;;;;;;;0.27;0.27;;;;;;;;;;5068176;28;20233;-65
2023/01/06 12:46:20;;;;;;;0.10;0.10;;;;;;;;;;5051102;28;20208;-64
2023/01/06 12:48:49;;;;;;;0.20;0.20;;;;;;;;;;5067366;28;20276;-64
2023/01/06 12:51:20;;;;;;;0.20;0.20;;;;;;;;;;5068444;28;20280;-64
2023/01/06 12:53:50;;;;;;;0.30;0.30;;;;;;;;;;5069268;28;20226;-64
2023/01/06 12:56:26;;;;;;;0.20;0.20;;;;;;;;;;5072260;28;20284;-65
2023/01/06 12:59:00;;;;;;;0.93;0.23;;;;;;;;;;5071853;28;20215;-64
2023/01/06 13:01:31;;;;;;;0.20;0.20;;;;;;;;;;5072074;28;20276;-64
2023/01/06 13:04:19;;;;;;;0.40;0.40;;;;;;;;;;5071921;28;20210;-65
2023/01/06 13:06:58;;;;;;;0.50;0.50;;;;;;;;;;5051968;28;20685;-65
2023/01/06 13:09:31;;;;;;;0.70;0.70;;;;;;;;;;5058133;28;20246;-64
2023/01/06 13:12:13;;;;;;;0.60;0.60;;;;;;;;;;5071497;28;20218;-65
2023/01/06 13:14:45;;;;;;;0.60;0.60;;;;;;;;;;5071282;28;20207;-65
2023/01/06 13:17:16;;;;;;;1.90;0.70;;;;;;;;;;5071531;28;20308;-65
2023/01/06 13:19:46;;;;;;;1.10;1.10;;;;;;;;;;5070797;28;20264;-66
2023/01/06 13:22:18;;;;;;;0.87;0.87;;;;;;;;;;5071559;28;20500;-68
2023/01/06 13:24:51;;;;;;;0.50;0.50;;;;;;;;;;5069200;28;20356;-66
2023/01/06 13:27:25;;;;;;;1.17;0.70;;;;;;;;;;5069728;28;20685;-66
2023/01/06 13:29:57;;;;;;;1.63;1.53;;;;;;;;;;5070644;28;20214;-66
2023/01/06 13:32:37;;;;;;;4.60;2.03;;;;;;;;;;5070830;28;20209;-65
2023/01/06 13:35:18;;;;;;;2.43;1.80;;;;;;;;;;5070652;28;20287;-66
2023/01/06 13:37:53;;;;;;;2.47;1.23;;;;;;;;;;5071039;28;20238;-66
2023/01/06 13:40:25;;;;;;;0.97;0.77;;;;;;;;;;5070721;28;20216;-66
2023/01/06 13:42:55;;;;;;;1.17;1.00;;;;;;;;;;5070529;28;20690;-66
2023/01/06 13:45:23;;;;;;;0.70;0.70;;;;;;;;;;5070879;28;20634;-66
2023/01/06 13:47:51;;;;;;;0.73;0.73;;;;;;;;;;5070939;28;20298;-65
2023/01/06 13:50:20;;;;;;;0.80;0.30;;;;;;;;;;5070385;28;20218;-66
2023/01/06 13:52:47;;;;;;;0.40;0.40;;;;;;;;;;5070100;28;20207;-65
2023/01/06 13:55:27;;;;;;;1.33;0.80;;;;;;;;;;5070207;28;20682;-65
2023/01/06 13:57:54;;;;;;;0.30;0.30;;;;;;;;;;5070320;28;20285;-66
2023/01/06 14:00:25;;;;;;;0.63;0.60;;;;;;;;;;5070232;28;20669;-66
2023/01/06 14:03:03;;;;;;;0.80;0.80;;;;;;;;;;5055207;28;20210;-65
2023/01/06 14:05:50;;;;;;;0.53;0.53;;;;;;;;;;5046677;28;20212;-63
2023/01/06 14:08:18;;;;;;;0.33;0.33;;;;;;;;;;5050420;28;20231;-63
2023/01/06 14:10:48;;;;;;;0.40;0.40;;;;;;;;;;5049851;28;20238;-61
2023/01/06 14:13:22;;;;;;;0.43;0.43;;;;;;;;;;5055706;28;20824;-66
2023/01/06 14:15:55;;;;;;;0.40;0.40;;;;;;;;;;5059257;28;20222;-64
2023/01/06 14:18:39;;;;;;;0.57;0.57;;;;;;;;;;5057585;28;20218;-67
2023/01/06 14:21:07;;;;;;;0.50;0.40;;;;;;;;;;5061548;28;20261;-67
2023/01/06 14:23:34;;;;;;;0.33;0.30;;;;;;;;;;5051080;28;20650;-67
2023/01/06 14:26:03;;;;;;;0.87;0.50;;;;;;;;;;5066516;28;20199;-67
2023/01/06 14:28:31;;;;;;;0.20;0.20;;;;;;;;;;5057744;28;20587;-66
2023/01/06 14:31:17;;;;;;;0.30;0.30;;;;;;;;;;5068806;28;20214;-64
2023/01/06 14:33:44;;;;;;;0.20;0.20;;;;;;;;;;5058339;28;20211;-65
2023/01/06 14:36:13;;;;;;;0.30;0.30;;;;;;;;;;5062856;28;20318;-65
2023/01/06 14:38:44;;;;;;;0.20;0.20;;;;;;;;;;5069545;28;20211;-66
2023/01/06 14:41:19;;;;;;;0.30;0.30;;;;;;;;;;5049189;28;20226;-62
2023/01/06 14:43:50;;;;;;;1.70;0.50;;;;;;;;;;5057381;28;20680;-62
2023/01/06 14:46:19;;;;;;;0.30;0.30;;;;;;;;;;5064071;28;20646;-66
2023/01/06 14:48:49;;;;;;;0.30;0.30;;;;;;;;;;5051571;28;20631;-65
2023/01/06 14:51:19;;;;;;;0.30;0.30;;;;;;;;;;5054334;28;20468;-65
2023/01/06 14:53:48;;;;;;;2.53;0.30;;;;;;;;;;5061131;28;20211;-65
2023/01/06 14:56:18;;;;;;;0.20;0.20;;;;;;;;;;5056779;28;20232;-65
2023/01/06 14:58:45;;;;;;;0.40;0.40;;;;;;;;;;5058971;28;20203;-65